createdAt,value
2022-12-09T00:01:28.353Z,25.67
2022-12-09T00:03:58.151Z,24.33
2022-12-09T00:06:30.940Z,26.35
2022-12-09T00:09:00.299Z,27.30
2022-12-09T00:11:30.834Z,25.65
2022-12-09T00:14:03.205Z,25.65
2022-12-09T00:16:32.872Z,24.35
2022-12-09T00:19:02.028Z,25.65
2022-12-09T00:21:33.737Z,26.77
2022-12-09T00:24:05.829Z,25.63
2022-12-09T00:26:38.483Z,25.88
2022-12-09T00:29:07.336Z,23.30
2022-12-09T00:31:39.448Z,23.83
2022-12-09T00:34:12.661Z,23.67
2022-12-09T00:36:41.550Z,23.58
2022-12-09T00:39:13.280Z,23.25
2022-12-09T00:41:44.122Z,22.73
2022-12-09T00:44:14.318Z,24.42
2022-12-09T00:46:43.554Z,23.95
2022-12-09T00:49:12.721Z,22.30
2022-12-09T00:51:41.345Z,17.58
2022-12-09T00:54:10.252Z,17.08
2022-12-09T00:56:39.292Z,15.73
2022-12-09T00:59:09.484Z,16.08
2022-12-09T01:01:39.823Z,15.18
2022-12-09T01:04:11.110Z,16.70
2022-12-09T01:06:40.464Z,16.60
2022-12-09T01:09:09.246Z,15.70
2022-12-09T01:11:38.573Z,15.38
2022-12-09T01:14:09.725Z,15.30
2022-12-09T01:16:39.135Z,16.38
2022-12-09T01:19:12.433Z,16.75
2022-12-09T01:21:41.921Z,16.90
2022-12-09T01:24:14.211Z,16.70
2022-12-09T01:26:43.644Z,18.35
2022-12-09T01:29:14.270Z,17.60
2022-12-09T01:31:43.676Z,17.10
2022-12-09T01:34:13.359Z,18.15
2022-12-09T01:36:44.080Z,17.65
2022-12-09T01:39:12.572Z,18.75
2022-12-09T01:41:42.599Z,19.17
2022-12-09T01:44:22.024Z,19.30
2022-12-09T01:46:57.501Z,19.45
2022-12-09T01:49:31.415Z,19.55
2022-12-09T01:52:06.983Z,19.80
2022-12-09T01:54:36.031Z,18.67
2022-12-09T01:57:05.979Z,19.88
2022-12-09T01:59:36.740Z,21.58
2022-12-09T02:02:09.320Z,19.25
2022-12-09T02:04:42.671Z,21.02
2022-12-09T02:07:13.387Z,19.85
2022-12-09T02:09:45.520Z,21.08
2022-12-09T02:12:17.033Z,19.60
2022-12-09T02:14:56.099Z,20.17
2022-12-09T02:17:36.355Z,19.90
2022-12-09T02:20:17.369Z,21.13
2022-12-09T02:22:53.760Z,19.67
2022-12-09T02:25:33.819Z,19.80
2022-12-09T02:28:46.694Z,20.58
2022-12-09T02:31:31.224Z,18.98
2022-12-09T02:34:16.217Z,19.17
2022-12-09T02:36:56.151Z,19.38
2022-12-09T02:39:32.529Z,19.80
2022-12-09T02:42:06.151Z,20.13
2022-12-09T02:44:39.476Z,19.52
2022-12-09T02:47:11.072Z,21.45
2022-12-09T02:49:44.283Z,20.30
2022-12-09T02:52:16.224Z,20.98
2022-12-09T02:54:46.263Z,21.40
2022-12-09T02:57:19.417Z,21.98
2022-12-09T02:59:48.354Z,21.40
2022-12-09T03:02:28.457Z,21.17
2022-12-09T03:05:13.530Z,21.80
2022-12-09T03:07:53.295Z,21.88
2022-12-09T03:10:29.799Z,21.13
2022-12-09T03:13:05.102Z,20.35
2022-12-09T03:15:37.214Z,21.35
2022-12-09T03:18:15.387Z,22.67
2022-12-09T03:20:49.267Z,20.45
2022-12-09T03:23:25.089Z,21.60
2022-12-09T03:25:56.171Z,22.20
2022-12-09T03:28:31.976Z,21.38
2022-12-09T03:31:06.174Z,21.60
2022-12-09T03:33:36.483Z,20.93
2022-12-09T03:36:14.253Z,21.23
2022-12-09T03:38:47.310Z,21.45
2022-12-09T03:41:24.227Z,20.70
2022-12-09T03:43:57.521Z,20.88
2022-12-09T03:46:29.878Z,21.13
2022-12-09T03:49:01.741Z,20.60
2022-12-09T03:51:37.563Z,20.95
2022-12-09T03:54:16.317Z,20.38
2022-12-09T03:56:51.379Z,20.20
2022-12-09T04:01:50.210Z,19.05
2022-12-09T04:04:19.251Z,19.75
2022-12-09T04:06:52.316Z,21.17
2022-12-09T04:09:21.068Z,20.38
2022-12-09T04:11:50.275Z,21.17
2022-12-09T04:14:19.338Z,22.10
2022-12-09T04:16:48.363Z,20.83
2022-12-09T04:19:17.284Z,20.70
2022-12-09T04:21:46.044Z,20.50
2022-12-09T04:24:17.395Z,20.33
2022-12-09T04:26:46.931Z,20.83
2022-12-09T04:29:18.312Z,21.00
2022-12-09T04:31:47.205Z,20.23
2022-12-09T04:34:15.773Z,19.63
2022-12-09T04:36:44.954Z,19.23
2022-12-09T04:39:15.215Z,20.80
2022-12-09T04:41:44.631Z,19.52
2022-12-09T04:44:14.741Z,19.73
2022-12-09T04:46:43.421Z,20.13
2022-12-09T04:49:12.049Z,18.60
2022-12-09T04:51:41.580Z,17.73
2022-12-09T04:54:18.047Z,20.35
2022-12-09T04:56:47.486Z,19.55
2022-12-09T04:59:16.791Z,18.77
2022-12-09T05:01:45.757Z,17.23
2022-12-09T05:04:15.586Z,18.20
2022-12-09T05:06:44.904Z,18.98
2022-12-09T05:09:15.289Z,18.95
2022-12-09T05:11:47.919Z,19.10
2022-12-09T05:14:16.997Z,17.77
2022-12-09T05:16:47.604Z,20.08
2022-12-09T05:19:17.191Z,17.75
2022-12-09T05:21:46.379Z,18.33
2022-12-09T05:24:15.572Z,18.15
2022-12-09T05:26:48.499Z,18.38
2022-12-09T05:29:22.521Z,18.17
2022-12-09T05:31:53.323Z,18.88
2022-12-09T05:34:23.512Z,21.48
2022-12-09T05:36:53.698Z,21.55
2022-12-09T05:39:22.766Z,21.73
2022-12-09T05:41:56.526Z,20.88
2022-12-09T05:44:26.790Z,20.55
2022-12-09T05:46:55.663Z,18.27
2022-12-09T05:49:25.495Z,19.33
2022-12-09T05:51:55.978Z,17.80
2022-12-09T05:54:25.958Z,18.58
2022-12-09T05:56:57.462Z,17.90
2022-12-09T05:59:27.105Z,16.25
2022-12-09T06:01:57.393Z,18.35
2022-12-09T06:04:28.081Z,25.15
2022-12-09T06:06:58.012Z,21.13
2022-12-09T06:09:28.547Z,18.30
2022-12-09T06:11:59.956Z,17.88
2022-12-09T06:14:29.180Z,17.42
2022-12-09T06:16:58.753Z,18.55
2022-12-09T06:19:28.324Z,18.33
2022-12-09T06:21:57.851Z,17.88
2022-12-09T06:24:26.944Z,19.20
2022-12-09T06:26:58.491Z,18.27
2022-12-09T06:29:27.609Z,17.23
2022-12-09T06:31:57.679Z,18.55
2022-12-09T06:34:29.205Z,18.67
2022-12-09T06:37:00.959Z,19.60
2022-12-09T06:39:30.872Z,19.10
2022-12-09T06:42:02.484Z,19.08
2022-12-09T06:44:31.996Z,18.45
2022-12-09T06:47:01.031Z,19.23
2022-12-09T06:49:30.780Z,17.92
2022-12-09T06:52:01.777Z,17.10
2022-12-09T06:54:32.821Z,18.67
2022-12-09T06:57:49.219Z,18.88
2022-12-09T07:00:19.018Z,19.27
2022-12-09T07:02:50.394Z,21.42
2022-12-09T07:05:21.612Z,19.33
2022-12-09T07:07:53.055Z,19.70
2022-12-09T07:10:23.801Z,20.45
2022-12-09T07:12:55.449Z,21.75
2022-12-09T07:15:25.860Z,21.15
2022-12-09T07:17:56.315Z,19.67
2022-12-09T07:20:26.767Z,18.80
2022-12-09T07:22:56.267Z,21.92
2022-12-09T07:25:25.653Z,23.25
2022-12-09T07:27:56.431Z,25.05
2022-12-09T07:30:27.191Z,24.35
2022-12-09T07:32:56.209Z,22.30
2022-12-09T07:35:28.355Z,21.50
2022-12-09T07:37:58.666Z,23.17
2022-12-09T07:40:28.073Z,20.83
2022-12-09T07:42:59.882Z,24.88
2022-12-09T07:45:29.417Z,32.13
2022-12-09T07:47:58.433Z,27.45
2022-12-09T07:50:27.536Z,27.00
2022-12-09T07:52:57.296Z,26.88
2022-12-09T07:55:26.274Z,33.78
2022-12-09T07:57:55.144Z,30.67
2022-12-09T08:00:27.168Z,26.40
2022-12-09T08:02:57.861Z,27.27
2022-12-09T08:05:30.242Z,26.70
2022-12-09T08:08:00.961Z,25.05
2022-12-09T08:10:30.922Z,27.00
2022-12-09T08:13:03.118Z,25.52
2022-12-09T08:15:35.879Z,25.13
2022-12-09T08:18:05.479Z,25.98
2022-12-09T08:20:34.489Z,25.95
2022-12-09T08:23:03.563Z,26.05
2022-12-09T08:25:32.275Z,25.75
2022-12-09T08:28:01.510Z,25.67
2022-12-09T08:30:33.323Z,24.92
2022-12-09T08:33:03.534Z,25.67
2022-12-09T08:35:32.557Z,24.48
2022-12-09T08:38:01.656Z,27.60
2022-12-09T08:40:31.723Z,25.52
2022-12-09T08:43:01.792Z,26.80
2022-12-09T08:45:31.489Z,27.42
2022-12-09T08:48:02.960Z,23.88
2022-12-09T08:50:32.327Z,25.05
2022-12-09T08:53:01.760Z,25.65
2022-12-09T08:55:31.210Z,25.52
2022-12-09T08:58:00.084Z,25.38
2022-12-09T09:00:29.092Z,26.38
2022-12-09T09:02:58.563Z,27.33
2022-12-09T09:05:30.070Z,26.15
2022-12-09T09:07:59.514Z,27.20
2022-12-09T09:10:29.755Z,25.95
2022-12-09T09:12:59.711Z,26.60
2022-12-09T09:15:29.091Z,28.27
2022-12-09T09:17:58.252Z,27.33
2022-12-09T09:20:29.551Z,28.67
2022-12-09T09:23:03.128Z,28.13
2022-12-09T09:25:33.157Z,29.77
2022-12-09T09:28:02.296Z,27.92
2022-12-09T09:30:31.492Z,31.52
2022-12-09T09:33:00.120Z,31.02
2022-12-09T09:35:31.704Z,33.53
2022-12-09T09:38:00.662Z,32.72
2022-12-09T09:40:31.915Z,33.40
2022-12-09T09:43:03.494Z,34.85
2022-12-09T09:45:32.644Z,34.05
2022-12-09T09:48:05.621Z,35.28
2022-12-09T09:50:44.574Z,34.53
2022-12-09T09:53:26.066Z,37.22
2022-12-09T09:56:01.469Z,38.45
2022-12-09T09:58:44.228Z,38.53
2022-12-09T10:01:17.800Z,39.25
2022-12-09T10:04:00.795Z,38.10
2022-12-09T10:06:45.741Z,38.53
2022-12-09T10:09:21.865Z,39.25
2022-12-09T10:12:03.188Z,39.70
2022-12-09T10:14:46.156Z,39.20
2022-12-09T10:17:27.959Z,41.35
2022-12-09T10:20:06.475Z,41.97
2022-12-09T10:22:44.836Z,41.42
2022-12-09T10:25:22.871Z,49.15
2022-12-09T10:28:01.622Z,47.97
2022-12-09T10:30:37.274Z,49.17
2022-12-09T10:33:11.896Z,50.45
2022-12-09T10:35:44.270Z,47.95
2022-12-09T10:38:17.601Z,48.55
2022-12-09T10:41:01.272Z,44.25
2022-12-09T10:43:38.980Z,45.25
2022-12-09T10:46:18.755Z,43.65
2022-12-09T10:48:56.431Z,45.22
2022-12-09T10:51:30.186Z,44.63
2022-12-09T10:54:04.473Z,44.75
2022-12-09T10:56:37.066Z,42.85
2022-12-09T10:59:19.749Z,43.90
2022-12-09T11:01:55.717Z,43.92
2022-12-09T11:04:27.289Z,44.22
2022-12-09T11:07:01.139Z,43.28
2022-12-09T11:09:34.955Z,44.00
2022-12-09T11:12:08.748Z,41.88
2022-12-09T11:14:41.362Z,42.55
2022-12-09T11:17:17.823Z,42.40
2022-12-09T11:19:52.531Z,41.97
2022-12-09T11:22:40.269Z,41.15
2022-12-09T11:25:34.516Z,41.72
2022-12-09T11:28:06.725Z,39.00
2022-12-09T11:31:04.745Z,40.13
2022-12-09T11:33:36.716Z,41.85
2022-12-09T11:36:10.754Z,39.75
2022-12-09T11:38:43.027Z,39.78
2022-12-09T11:41:36.334Z,38.53
2022-12-09T11:44:24.615Z,38.53
2022-12-09T11:47:01.564Z,39.20
2022-12-09T11:49:33.872Z,37.88
2022-12-09T11:52:39.101Z,37.80
2022-12-09T11:55:20.251Z,37.22
2022-12-09T11:57:56.679Z,36.50
2022-12-09T12:00:29.161Z,36.78
2022-12-09T12:03:08.254Z,36.25
2022-12-09T12:05:42.224Z,35.00
2022-12-09T12:08:22.271Z,36.75
2022-12-09T12:10:58.351Z,37.15
2022-12-09T12:13:38.482Z,37.22
2022-12-09T12:16:13.009Z,35.25
2022-12-09T12:19:00.427Z,36.88
2022-12-09T12:21:45.775Z,37.00
2022-12-09T12:24:56.184Z,36.55
2022-12-09T12:27:45.471Z,36.22
2022-12-09T12:30:20.309Z,37.20
2022-12-09T12:36:24.263Z,35.17
2022-12-09T12:39:06.226Z,33.70
2022-12-09T12:41:51.966Z,35.50
2022-12-09T12:45:08.596Z,34.70
2022-12-09T12:47:47.920Z,34.38
2022-12-09T12:50:52.906Z,32.67
2022-12-09T12:53:37.844Z,32.65
2022-12-09T12:56:13.511Z,33.90
2022-12-09T12:59:01.410Z,32.08
2022-12-09T13:01:35.905Z,33.22
2022-12-09T13:04:22.429Z,32.42
2022-12-09T13:06:58.966Z,32.10
2022-12-09T13:09:37.885Z,31.83
2022-12-09T13:12:16.193Z,33.15
2022-12-09T13:14:57.382Z,32.83
2022-12-09T13:17:31.356Z,33.38
2022-12-09T13:20:06.278Z,30.13
2022-12-09T13:22:46.911Z,33.08
2022-12-09T13:25:30.692Z,30.85
2022-12-09T13:28:08.159Z,32.88
2022-12-09T13:30:51.070Z,32.95
2022-12-09T13:33:46.204Z,32.30
2022-12-09T13:36:23.625Z,31.60
2022-12-09T13:38:52.850Z,31.33
2022-12-09T13:42:03.838Z,33.60
2022-12-09T13:44:38.716Z,31.88
2022-12-09T13:47:34.542Z,32.10
2022-12-09T13:50:06.836Z,30.92
2022-12-09T13:52:52.473Z,30.45
2022-12-09T13:55:50.639Z,30.58
2022-12-09T13:58:59.866Z,29.58
2022-12-09T14:01:37.001Z,30.92
2022-12-09T14:04:15.086Z,29.33
2022-12-09T14:07:01.139Z,29.08
2022-12-09T14:09:43.184Z,29.38
2022-12-09T14:12:14.672Z,29.50
2022-12-09T14:14:53.202Z,30.42
2022-12-09T14:18:04.569Z,30.33
2022-12-09T14:20:41.112Z,28.65
2022-12-09T14:23:18.144Z,30.60
2022-12-09T14:26:06.279Z,29.42
2022-12-09T14:28:56.110Z,28.70
2022-12-09T14:32:02.728Z,28.20
2022-12-09T14:34:50.170Z,30.10
2022-12-09T14:38:02.652Z,28.33
2022-12-09T14:40:54.037Z,29.17
2022-12-09T14:43:55.830Z,29.25
2022-12-09T14:46:33.431Z,27.75
2022-12-09T14:49:12.181Z,29.95
2022-12-09T14:51:47.069Z,30.15
2022-12-09T14:54:22.024Z,30.65
2022-12-09T14:56:55.576Z,30.58
2022-12-09T14:59:28.486Z,31.25
2022-12-09T15:02:00.977Z,29.73
2022-12-09T15:04:36.733Z,31.70
2022-12-09T15:07:15.400Z,28.60
2022-12-09T15:09:53.709Z,30.05
2022-12-09T15:12:31.575Z,30.35
2022-12-09T15:15:11.333Z,30.42
2022-12-09T15:17:45.454Z,30.55
2022-12-09T15:20:29.104Z,31.67
2022-12-09T15:23:04.498Z,29.10
2022-12-09T15:25:35.652Z,34.20
2022-12-09T15:28:15.070Z,33.30
2022-12-09T15:30:47.024Z,30.42
2022-12-09T15:33:20.586Z,31.38
2022-12-09T15:35:57.198Z,32.80
2022-12-09T15:38:28.644Z,31.15
2022-12-09T15:41:18.684Z,31.90
2022-12-09T15:43:55.079Z,31.65
2022-12-09T15:46:35.777Z,30.98
2022-12-09T15:49:05.741Z,30.73
2022-12-09T15:51:38.157Z,31.95
2022-12-09T15:54:12.109Z,31.80
2022-12-09T15:56:45.539Z,33.00
2022-12-09T15:59:19.478Z,33.80
2022-12-09T16:01:54.133Z,32.03
2022-12-09T16:04:27.276Z,30.70
2022-12-09T16:06:57.186Z,31.48
2022-12-09T16:09:25.733Z,32.30
2022-12-09T16:11:56.327Z,32.95
2022-12-09T16:14:25.996Z,30.60
2022-12-09T16:17:02.570Z,32.55
2022-12-09T16:19:38.352Z,32.58
2022-12-09T16:22:10.947Z,31.63
2022-12-09T16:27:39.546Z,31.88
2022-12-09T16:30:19.960Z,32.92
2022-12-09T16:33:10.145Z,34.72
2022-12-09T16:35:43.042Z,33.92
2022-12-09T16:38:20.961Z,36.17
2022-12-09T16:41:23.137Z,32.92
2022-12-09T16:43:58.855Z,32.35
2022-12-09T16:46:43.964Z,34.08
2022-12-09T16:49:15.738Z,34.47
2022-12-09T16:51:45.450Z,34.65
2022-12-09T16:54:20.458Z,35.40
2022-12-09T16:56:53.682Z,32.92
2022-12-09T16:59:22.742Z,34.30
2022-12-09T17:01:53.577Z,35.10
2022-12-09T17:04:30.120Z,36.80
2022-12-09T17:06:59.576Z,35.75
2022-12-09T17:09:28.371Z,36.92
2022-12-09T17:12:00.883Z,36.63
2022-12-09T17:14:32.813Z,38.58
2022-12-09T17:17:02.878Z,38.78
2022-12-09T17:19:33.307Z,40.05
2022-12-09T17:22:01.753Z,39.78
2022-12-09T17:24:30.543Z,43.38
2022-12-09T17:26:59.562Z,41.47
2022-12-09T17:29:28.942Z,42.22
2022-12-09T17:31:57.743Z,46.17
2022-12-09T17:34:28.776Z,43.78
2022-12-09T17:36:59.290Z,45.85
2022-12-09T17:39:30.349Z,46.58
2022-12-09T17:41:58.836Z,48.35
2022-12-09T17:47:11.382Z,50.90
2022-12-09T17:49:40.333Z,47.83
2022-12-09T17:52:11.672Z,51.25
2022-12-09T17:54:41.082Z,52.53
2022-12-09T17:59:59.958Z,50.60
2022-12-09T18:02:29.920Z,51.05
2022-12-09T18:04:58.788Z,52.25
2022-12-09T18:07:31.081Z,50.58
2022-12-09T18:10:02.289Z,51.83
2022-12-09T18:12:31.163Z,54.28
2022-12-09T18:15:14.248Z,50.85
2022-12-09T18:23:10.168Z,48.97
2022-12-09T18:25:42.304Z,50.80
2022-12-09T18:28:10.799Z,50.42
2022-12-09T18:30:40.657Z,50.50
2022-12-09T18:33:11.318Z,50.55
2022-12-09T18:35:42.703Z,52.17
2022-12-09T18:38:13.055Z,51.90
2022-12-09T18:41:01.035Z,54.40
2022-12-09T18:43:30.639Z,52.13
2022-12-09T18:46:04.067Z,51.88
2022-12-09T18:48:34.470Z,54.35
2022-12-09T18:51:02.858Z,52.53
2022-12-09T18:53:33.108Z,50.20
2022-12-09T18:56:06.517Z,51.75
2022-12-09T18:59:04.685Z,52.47
2022-12-09T19:01:30.713Z,51.55
2022-12-09T19:04:06.367Z,50.90
2022-12-09T19:06:39.306Z,50.55
2022-12-09T19:09:14.539Z,51.38
2022-12-09T19:11:44.763Z,51.13
2022-12-09T19:14:15.285Z,52.05
2022-12-09T19:16:45.670Z,51.80
2022-12-09T19:19:18.401Z,51.50
2022-12-09T19:21:48.081Z,53.63
2022-12-09T19:24:21.483Z,52.38
2022-12-09T19:26:53.344Z,58.30
2022-12-09T19:29:24.702Z,55.28
2022-12-09T19:31:54.645Z,53.33
2022-12-09T19:34:26.867Z,57.45
2022-12-09T19:36:58.755Z,54.70
2022-12-09T19:39:48.361Z,54.38
2022-12-09T19:42:19.380Z,54.55
2022-12-09T19:45:12.064Z,53.00
2022-12-09T19:47:40.379Z,51.95
2022-12-09T19:50:12.949Z,56.22
2022-12-09T19:52:42.971Z,54.47
2022-12-09T19:55:16.379Z,52.35
2022-12-09T19:58:06.004Z,52.30
2022-12-09T20:00:41.193Z,53.42
2022-12-09T20:03:12.343Z,54.30
2022-12-09T20:05:52.690Z,58.80
2022-12-09T20:08:23.595Z,55.42
2022-12-09T20:10:55.991Z,53.13
2022-12-09T20:13:31.831Z,56.15
2022-12-09T20:18:57.907Z,60.53
2022-12-09T20:21:28.006Z,54.83
2022-12-09T20:23:58.956Z,56.95
2022-12-09T20:26:35.188Z,56.97
2022-12-09T20:29:11.975Z,57.70
2022-12-09T20:31:43.523Z,55.17
2022-12-09T20:34:19.882Z,58.08
2022-12-09T20:36:49.538Z,56.60
2022-12-09T20:39:22.883Z,57.63
2022-12-09T20:41:54.908Z,56.08
2022-12-09T20:44:26.224Z,56.22
2022-12-09T20:46:57.980Z,56.75
2022-12-09T20:49:28.302Z,56.25
2022-12-09T20:51:58.012Z,56.15
2022-12-09T20:54:28.219Z,57.28
2022-12-09T20:57:00.194Z,55.97
2022-12-09T20:59:29.480Z,56.22
2022-12-09T21:01:58.811Z,56.97
2022-12-09T21:04:28.342Z,54.97
2022-12-09T21:06:58.171Z,54.20
2022-12-09T21:09:29.776Z,55.55
2022-12-09T21:12:00.429Z,53.92
2022-12-09T21:14:33.155Z,52.35
2022-12-09T21:17:03.271Z,52.50
2022-12-09T21:19:32.696Z,53.08
2022-12-09T21:22:04.373Z,53.65
2022-12-09T21:24:33.949Z,52.10
2022-12-09T21:27:05.065Z,51.30
2022-12-09T21:29:33.535Z,50.85
2022-12-09T21:32:05.723Z,51.92
2022-12-09T21:34:34.640Z,50.88
2022-12-09T21:37:03.499Z,51.85
2022-12-09T21:39:33.273Z,51.22
2022-12-09T21:42:03.356Z,52.15
2022-12-09T21:44:34.015Z,54.28
2022-12-09T21:47:04.475Z,51.80
2022-12-09T21:49:36.407Z,54.42
2022-12-09T21:52:07.109Z,51.00
2022-12-09T21:54:35.830Z,51.28
2022-12-09T21:57:08.432Z,52.20
2022-12-09T21:59:37.060Z,50.97
2022-12-09T22:02:05.925Z,53.03
2022-12-09T22:04:35.016Z,52.35
2022-12-09T22:07:05.073Z,51.85
2022-12-09T22:09:35.854Z,54.10
2022-12-09T22:12:08.049Z,53.75
2022-12-09T22:17:34.214Z,51.00
2022-12-09T22:20:48.847Z,50.17
2022-12-09T22:22:54.985Z,51.65
2022-12-09T22:25:24.082Z,51.95
2022-12-09T22:27:55.632Z,52.38
2022-12-09T22:30:24.690Z,52.40
2022-12-09T22:32:53.150Z,52.35
2022-12-09T22:35:21.987Z,56.17
2022-12-09T22:37:50.897Z,54.67
2022-12-09T22:40:20.452Z,55.42
2022-12-09T22:42:50.495Z,54.17
2022-12-09T22:45:20.822Z,53.55
2022-12-09T22:47:49.918Z,56.40
2022-12-09T22:50:21.911Z,56.05
2022-12-09T22:52:51.041Z,54.15
2022-12-09T22:55:21.200Z,54.72
2022-12-09T22:57:56.657Z,56.28
2022-12-09T23:00:26.616Z,56.92
2022-12-09T23:02:55.354Z,54.78
2022-12-09T23:05:23.752Z,55.13
2022-12-09T23:07:52.896Z,55.90
2022-12-09T23:10:21.421Z,56.28
2022-12-09T23:12:50.764Z,56.65
2022-12-09T23:15:19.184Z,57.78
2022-12-09T23:17:49.314Z,56.20
2022-12-09T23:20:18.046Z,53.33
2022-12-09T23:22:47.831Z,52.70
2022-12-09T23:25:19.471Z,52.22
2022-12-09T23:27:50.435Z,52.88
2022-12-09T23:30:19.263Z,53.72
2022-12-09T23:32:49.353Z,53.72
2022-12-09T23:35:18.276Z,51.90
2022-12-09T23:37:47.285Z,52.45
2022-12-09T23:40:16.061Z,52.30
2022-12-09T23:42:48.327Z,50.60
2022-12-09T23:45:17.692Z,53.67
2022-12-09T23:47:48.728Z,53.38
2022-12-09T23:50:17.643Z,53.60
2022-12-09T23:52:49.059Z,52.85
2022-12-09T23:55:17.924Z,52.72
2022-12-09T23:57:52.215Z,51.60
